Time;durP1;ratioP1;P1;durP2;ratioP2;P2;SDS_P1;SDS_P2;PMS_P1;PMS_P2;Temp;Humidity;BMP_temperature;BMP_pressure;BME280_temperature;BME280_humidity;BME280_pressure;Samples;Min_cycle;Max_cycle;Signal;HPM_P1;HPM_P2
2022/11/08 00:03:50;;;;;;;39.87;28.63;;;;;;;11.81;89.26;100055.09;5072259;28;20180;-72
2022/11/08 00:14:30;;;;;;;45.93;28.43;;;;;;;11.88;89.56;100048.81;5090373;28;20261;-73
2022/11/08 00:16:56;;;;;;;47.20;27.73;;;;;;;11.92;89.82;100047.44;5077696;28;20283;-73
2022/11/08 00:19:23;;;;;;;34.20;25.50;;;;;;;11.97;89.52;100045.00;5071563;28;20201;-73
2022/11/08 00:21:50;;;;;;;39.37;27.20;;;;;;;12.01;89.41;100040.16;5071378;28;20203;-73
2022/11/08 00:24:16;;;;;;;45.37;27.83;;;;;;;12.05;89.73;100034.22;5072719;28;20657;-73
2022/11/08 00:26:43;;;;;;;35.90;26.53;;;;;;;12.15;89.45;100039.22;5075631;28;20249;-73
2022/11/08 00:29:10;;;;;;;43.90;27.33;;;;;;;12.07;89.21;100018.06;5081126;28;20217;-72
2022/11/08 00:31:38;;;;;;;43.40;25.13;;;;;;;12.25;88.77;100043.19;5095503;28;20734;-72
2022/11/08 00:34:05;;;;;;;38.97;27.17;;;;;;;12.32;88.51;100038.75;5095469;28;20243;-72
2022/11/08 00:36:31;;;;;;;39.03;26.93;;;;;;;12.38;88.90;100040.66;5095492;28;20249;-72
2022/11/08 00:38:58;;;;;;;44.40;27.23;;;;;;;12.43;88.63;100035.56;5095769;28;20204;-72
2022/11/08 00:41:25;;;;;;;48.23;28.70;;;;;;;12.32;88.28;100030.75;5095629;28;20194;-72
2022/11/08 00:43:51;;;;;;;43.03;29.00;;;;;;;12.37;89.23;100024.88;5095685;28;20252;-71
2022/11/08 00:46:18;;;;;;;43.77;29.00;;;;;;;12.44;89.00;100026.53;5095532;28;20194;-73
2022/11/08 00:48:46;;;;;;;42.13;28.53;;;;;;;12.54;88.85;100032.34;5095171;28;20221;-73
2022/11/08 00:51:13;;;;;;;45.23;30.33;;;;;;;12.63;88.58;100028.53;5095446;28;20197;-73
2022/11/08 00:53:40;;;;;;;43.03;29.63;;;;;;;12.68;88.25;100022.59;5095747;28;20259;-74
2022/11/08 00:56:10;;;;;;;45.83;29.77;;;;;;;12.69;88.25;100019.72;5095390;28;20569;-73
2022/11/08 00:58:37;;;;;;;40.23;28.50;;;;;;;12.68;88.12;100015.44;5096298;28;20190;-73
2022/11/08 01:01:09;;;;;;;48.13;30.37;;;;;;;12.72;88.11;100010.50;5095225;28;20187;-73
2022/11/08 01:03:36;;;;;;;49.30;30.70;;;;;;;12.77;88.15;100014.25;5095355;28;20184;-73
2022/11/08 01:06:07;;;;;;;47.83;30.80;;;;;;;12.81;88.21;100002.16;5094874;28;20213;-73
2022/11/08 01:08:34;;;;;;;46.30;29.70;;;;;;;12.83;87.99;99989.44;5089905;28;20706;-73
2022/11/08 01:11:02;;;;;;;45.67;29.83;;;;;;;12.95;87.64;100003.84;5094773;28;20194;-73
2022/11/08 01:13:29;;;;;;;45.47;30.17;;;;;;;13.04;87.27;100002.72;5084595;28;20639;-74
2022/11/08 01:15:56;;;;;;;48.60;32.10;;;;;;;13.12;87.37;100001.72;5074404;28;20188;-73
2022/11/08 01:18:23;;;;;;;43.63;30.43;;;;;;;13.14;86.69;99995.16;5074484;28;20244;-73
2022/11/08 01:20:50;;;;;;;41.13;30.80;;;;;;;13.19;86.97;99995.38;5074329;28;20217;-74
2022/11/08 01:23:19;;;;;;;42.47;31.03;;;;;;;13.24;86.39;99989.44;5074374;28;20655;-73
2022/11/08 01:25:47;;;;;;;50.10;30.23;;;;;;;13.27;86.38;99986.38;5074491;28;20626;-73
2022/11/08 01:28:14;;;;;;;50.33;30.50;;;;;;;13.19;86.28;99984.69;5074496;28;20240;-72
2022/11/08 01:30:43;;;;;;;50.03;30.80;;;;;;;13.21;86.95;99976.50;5092327;28;20200;-72
2022/11/08 01:33:10;;;;;;;50.20;32.37;;;;;;;13.20;87.01;99972.19;5094308;28;20191;-72
2022/11/08 01:35:38;;;;;;;46.70;32.10;;;;;;;13.19;86.96;99974.03;5093853;28;20745;-72
2022/11/08 01:38:05;;;;;;;47.37;31.67;;;;;;;13.20;86.73;99974.88;5094121;28;20193;-72
2022/11/08 01:40:34;;;;;;;46.47;32.77;;;;;;;13.22;87.04;99970.13;5095124;28;20252;-72
2022/11/08 01:43:33;;;;;;;45.67;31.67;;;;;;;13.18;86.42;99964.38;5094525;28;20241;-71
2022/11/08 01:46:30;;;;;;;45.37;31.67;;;;;;;13.22;86.80;99965.63;5081168;28;20256;-72
2022/11/08 01:49:05;;;;;;;48.67;32.53;;;;;;;13.21;86.57;99961.31;5094283;28;20306;-71
2022/11/08 01:51:36;;;;;;;52.27;31.53;;;;;;;13.22;86.45;99962.97;5094012;28;20649;-72
2022/11/08 01:54:08;;;;;;;47.87;31.93;;;;;;;13.26;86.46;99958.88;5094001;28;20715;-72
2022/11/08 01:56:37;;;;;;;45.17;31.53;;;;;;;13.27;86.80;99960.50;5094672;28;20190;-73
2022/11/08 01:59:08;;;;;;;40.13;30.30;;;;;;;13.35;86.54;99962.97;5094207;28;20203;-73
2022/11/08 02:01:35;;;;;;;49.27;30.67;;;;;;;13.38;86.13;99957.25;5094473;28;20190;-73
2022/11/08 02:04:03;;;;;;;43.70;30.60;;;;;;;13.35;85.98;99956.84;5093757;28;20629;-73
2022/11/08 02:06:32;;;;;;;46.43;31.23;;;;;;;13.32;86.41;99962.56;5093916;28;20245;-73
2022/11/08 02:09:03;;;;;;;49.43;31.40;;;;;;;13.34;86.86;99969.34;5093543;28;20765;-72
2022/11/08 02:11:30;;;;;;;51.07;31.77;;;;;;;13.38;86.28;99972.44;5094707;28;20245;-72
2022/11/08 02:13:58;;;;;;;52.17;31.20;;;;;;;13.43;86.54;99970.00;5079676;28;20555;-72
2022/11/08 02:16:25;;;;;;;43.47;29.97;;;;;;;13.40;86.28;99960.53;5083008;28;20309;-72
2022/11/08 02:18:52;;;;;;;44.17;31.20;;;;;;;13.47;86.21;99972.03;5093468;28;20555;-72
2022/11/08 02:21:26;;;;;;;48.53;31.13;;;;;;;13.44;86.13;99972.44;5093975;28;20194;-72
2022/11/08 02:23:56;;;;;;;44.80;30.80;;;;;;;13.35;86.25;99979.00;5093476;28;20244;-71
2022/11/08 02:26:25;;;;;;;43.77;31.73;;;;;;;13.42;86.65;99974.50;5093544;28;20192;-72
2022/11/08 02:28:52;;;;;;;47.37;30.83;;;;;;;13.45;85.92;99973.28;5093041;28;20252;-72
2022/11/08 02:31:19;;;;;;;42.37;29.27;;;;;;;13.44;86.29;99976.97;5094749;28;20213;-72
2022/11/08 02:33:47;;;;;;;42.57;29.67;;;;;;;13.39;86.36;99980.22;5093132;28;20727;-72
2022/11/08 02:36:16;;;;;;;42.57;30.40;;;;;;;13.28;86.51;99983.47;5093604;28;20227;-72
2022/11/08 02:38:47;;;;;;;44.13;31.27;;;;;;;13.31;87.16;99982.28;5092836;28;20198;-72
2022/11/08 02:41:15;;;;;;;46.03;31.03;;;;;;;13.26;87.11;99985.53;5093683;28;20183;-72
2022/11/08 02:43:42;;;;;;;51.30;31.00;;;;;;;13.28;87.31;99988.81;5093588;28;20195;-71
2022/11/08 02:46:09;;;;;;;44.97;31.27;;;;;;;13.24;87.02;99982.25;5093352;28;20187;-72
2022/11/08 02:48:36;;;;;;;47.23;31.20;;;;;;;13.25;87.00;99980.41;5092815;28;20195;-72
2022/11/08 02:51:02;;;;;;;43.47;30.73;;;;;;;13.14;87.36;99981.81;5093220;28;20196;-72
2022/11/08 02:53:29;;;;;;;50.33;32.70;;;;;;;13.16;88.03;99981.63;5092807;28;20618;-73
2022/11/08 02:55:56;;;;;;;47.07;32.20;;;;;;;13.17;87.78;99984.09;5093004;28;20621;-72
2022/11/08 02:58:24;;;;;;;51.17;31.13;;;;;;;13.13;87.48;99980.19;5093278;28;20193;-72
2022/11/08 03:00:50;;;;;;;46.47;31.33;;;;;;;13.06;87.23;99983.81;5093586;28;20195;-72
2022/11/08 03:03:17;;;;;;;48.53;33.40;;;;;;;12.97;88.16;99979.66;5092597;28;20252;-72
2022/11/08 03:05:46;;;;;;;45.90;31.47;;;;;;;12.96;88.34;99984.19;5092596;28;20621;-71
2022/11/08 03:08:13;;;;;;;45.37;32.03;;;;;;;12.95;88.46;99984.38;5092492;28;20193;-72
2022/11/08 03:10:39;;;;;;;51.37;33.00;;;;;;;12.91;88.85;99981.28;5093128;28;20218;-72
2022/11/08 03:13:06;;;;;;;43.70;31.80;;;;;;;12.93;88.71;99978.41;5085334;28;20192;-72
2022/11/08 03:15:34;;;;;;;50.87;33.27;;;;;;;12.96;87.89;99981.53;5074953;28;20622;-72
2022/11/08 03:18:02;;;;;;;46.83;32.50;;;;;;;13.02;88.21;99972.75;5093006;28;20231;-71
2022/11/08 03:20:29;;;;;;;53.97;33.07;;;;;;;13.05;88.01;99979.53;5092677;28;20285;-72
2022/11/08 03:22:59;;;;;;;47.13;32.03;;;;;;;13.01;87.98;99976.44;5092384;28;20240;-72
2022/11/08 03:25:26;;;;;;;51.70;32.87;;;;;;;13.00;88.17;99982.81;5092111;28;20655;-72
2022/11/08 03:27:53;;;;;;;52.83;33.53;;;;;;;12.99;88.90;99983.81;5092295;28;20286;-71
2022/11/08 03:30:20;;;;;;;44.57;32.77;;;;;;;13.02;88.51;99988.75;5092226;28;20218;-72
2022/11/08 03:32:49;;;;;;;51.33;32.47;;;;;;;13.06;88.36;99978.50;5092052;28;20728;-72
2022/11/08 03:35:17;;;;;;;47.20;32.47;;;;;;;13.10;88.52;99993.06;5093335;28;20202;-72
2022/11/08 03:37:50;;;;;;;49.30;33.07;;;;;;;13.10;87.89;99991.25;5092073;28;20215;-72
2022/11/08 03:40:17;;;;;;;49.40;32.97;;;;;;;13.06;87.99;99994.50;5092172;28;20277;-72
2022/11/08 03:42:43;;;;;;;52.93;32.47;;;;;;;13.01;88.24;99980.94;5092561;28;20619;-72
2022/11/08 03:45:11;;;;;;;46.77;32.93;;;;;;;13.00;88.47;99982.81;5092058;28;20278;-72
2022/11/08 03:47:38;;;;;;;52.67;33.27;;;;;;;13.01;88.82;99987.09;5091881;28;20729;-71
2022/11/08 03:50:07;;;;;;;57.30;32.07;;;;;;;13.03;88.50;99973.56;5092229;28;20309;-72
2022/11/08 03:52:40;;;;;;;56.27;33.67;;;;;;;13.05;88.49;99971.53;5092719;28;20248;-71
2022/11/08 03:55:08;;;;;;;57.10;34.83;;;;;;;13.09;88.25;99967.44;5092242;28;20187;-71
2022/11/08 03:57:34;;;;;;;51.80;33.50;;;;;;;13.11;88.41;99971.53;5092003;28;20255;-71
2022/11/08 04:00:01;;;;;;;53.37;32.67;;;;;;;13.16;88.43;99969.13;5094532;28;20252;-72
2022/11/08 04:02:28;;;;;;;45.20;31.60;;;;;;;13.21;88.38;99965.81;5096514;28;20248;-72
2022/11/08 04:04:54;;;;;;;53.40;34.57;;;;;;;13.26;87.82;99977.53;5096295;28;20195;-72
2022/11/08 04:07:22;;;;;;;49.60;34.27;;;;;;;13.27;87.65;99971.19;5096871;28;20202;-72
2022/11/08 04:09:49;;;;;;;47.40;32.43;;;;;;;13.32;87.66;99974.06;5096115;28;20215;-72
2022/11/08 04:15:15;;;;;;;47.90;30.93;;;;;;;13.34;87.28;99966.69;5075655;28;20608;-71
2022/11/08 04:23:12;;;;;;;46.43;30.83;;;;;;;13.25;88.22;99967.91;5075704;28;20591;-71
2022/11/08 04:25:39;;;;;;;50.03;33.40;;;;;;;13.28;87.84;99972.00;5075972;28;20575;-71
2022/11/08 04:28:07;;;;;;;46.83;32.70;;;;;;;13.25;87.79;99975.06;5075623;28;20682;-71
2022/11/08 04:30:33;;;;;;;46.00;32.10;;;;;;;13.21;87.60;99977.34;5092620;28;20268;-71
2022/11/08 04:33:01;;;;;;;54.03;31.57;;;;;;;13.15;87.49;99978.13;5095807;28;20195;-71
2022/11/08 04:35:28;;;;;;;61.07;33.13;;;;;;;13.17;88.33;99991.25;5095807;28;20279;-72
2022/11/08 04:37:59;;;;;;;52.63;33.23;;;;;;;13.20;88.12;99986.38;5095758;28;20199;-73
2022/11/08 04:40:27;;;;;;;59.20;33.23;;;;;;;13.21;88.12;99989.84;5095790;28;20234;-77
2022/11/08 04:42:54;;;;;;;47.37;33.50;;;;;;;13.24;88.50;99986.78;5095402;28;20288;-77
2022/11/08 04:45:21;;;;;;;52.33;31.53;;;;;;;13.26;88.30;99990.88;5095821;28;20620;-73
2022/11/08 04:47:48;;;;;;;57.20;34.00;;;;;;;13.27;88.16;99984.50;5095552;28;20191;-76
2022/11/08 04:50:15;;;;;;;55.80;33.27;;;;;;;13.28;87.75;99983.47;5095026;28;20710;-75
2022/11/08 04:52:42;;;;;;;56.80;34.20;;;;;;;13.15;87.17;99983.44;5095454;28;20252;-75
2022/11/08 04:55:10;;;;;;;54.90;32.67;;;;;;;13.19;87.33;99995.38;5095610;28;20194;-75
2022/11/08 04:57:38;;;;;;;62.60;33.07;;;;;;;13.23;87.82;100001.94;5095648;28;20252;-74
2022/11/08 05:00:05;;;;;;;48.70;31.13;;;;;;;13.32;89.95;100006.06;5095077;28;20581;-71
2022/11/08 05:02:32;;;;;;;55.80;33.73;;;;;;;13.45;88.65;100011.47;5095448;28;20662;-71
2022/11/08 05:04:59;;;;;;;49.47;34.30;;;;;;;13.51;87.83;100009.81;5095076;28;20199;-76
2022/11/08 05:07:25;;;;;;;49.67;33.53;;;;;;;13.52;88.02;100012.28;5094412;28;20191;-78
2022/11/08 05:09:52;;;;;;;45.43;32.33;;;;;;;13.51;87.24;100021.31;5092471;28;20291;-75
2022/11/08 05:12:19;;;;;;;49.67;32.87;;;;;;;13.39;87.63;100006.13;5093797;28;20226;-76
2022/11/08 05:14:47;;;;;;;47.63;32.40;;;;;;;13.44;87.49;100020.47;5074370;28;20204;-77
2022/11/08 05:17:14;;;;;;;58.03;34.13;;;;;;;13.38;87.55;100025.81;5091284;28;20219;-76
2022/11/08 05:25:09;;;;;;;50.33;32.50;;;;;;;13.23;88.13;100023.28;5094628;28;20692;-76
2022/11/08 05:27:35;;;;;;;47.90;34.57;;;;;;;13.23;88.73;100033.16;5094281;28;20728;-75
2022/11/08 05:30:04;;;;;;;55.10;35.80;;;;;;;13.19;88.63;100030.03;5094007;28;20234;-75
2022/11/08 05:32:31;;;;;;;54.90;33.53;;;;;;;13.19;89.04;100019.38;5094522;28;20191;-76
2022/11/08 05:34:57;;;;;;;50.90;33.47;;;;;;;13.20;88.98;100022.88;5094593;28;20624;-76
2022/11/08 05:37:24;;;;;;;54.63;34.13;;;;;;;13.21;88.70;100019.19;5094335;28;20264;-75
2022/11/08 05:39:51;;;;;;;52.53;33.57;;;;;;;13.21;88.22;100020.00;5093960;28;20264;-75
2022/11/08 05:42:17;;;;;;;50.50;33.90;;;;;;;13.14;88.50;100026.31;5094042;28;20194;-75
2022/11/08 05:44:44;;;;;;;58.93;34.90;;;;;;;13.03;88.48;100025.06;5094874;28;20252;-71
2022/11/08 05:47:12;;;;;;;52.37;35.60;;;;;;;12.93;89.34;100016.56;5094438;28;20191;-71
2022/11/08 05:49:39;;;;;;;74.13;35.07;;;;;;;12.97;89.64;100027.66;5075671;28;20218;-71
2022/11/08 05:52:06;;;;;;;71.67;37.63;;;;;;;12.89;89.72;100009.16;5094236;28;20252;-71
2022/11/08 05:54:32;;;;;;;70.50;36.03;;;;;;;13.04;89.83;100029.38;5093750;28;20779;-67
2022/11/08 05:56:59;;;;;;;62.73;35.20;;;;;;;13.12;89.80;100036.38;5094836;28;20195;-66
2022/11/08 05:59:26;;;;;;;63.97;37.13;;;;;;;13.16;89.86;100038.47;5093233;28;20195;-67
2022/11/08 06:01:53;;;;;;;60.13;36.00;;;;;;;13.15;89.65;100042.13;5093320;28;20248;-66
2022/11/08 06:04:21;;;;;;;80.40;38.40;;;;;;;13.20;89.51;100039.72;5093570;28;20665;-66
2022/11/08 06:06:49;;;;;;;68.43;37.00;;;;;;;13.26;89.36;100040.75;5093588;28;20245;-66
2022/11/08 06:09:16;;;;;;;70.67;32.87;;;;;;;13.28;88.25;100042.19;5093314;28;20229;-66
2022/11/08 06:11:43;;;;;;;66.20;34.67;;;;;;;13.31;88.54;100044.47;5094050;28;20202;-66
2022/11/08 06:14:09;;;;;;;68.47;32.27;;;;;;;13.37;88.30;100046.34;5077364;28;20192;-67
2022/11/08 06:16:36;;;;;;;51.93;30.20;;;;;;;13.42;87.55;100049.22;5084681;28;20219;-66
2022/11/08 06:19:03;;;;;;;54.47;27.13;;;;;;;13.41;87.01;100050.25;5093421;28;20560;-66
2022/11/08 06:21:31;;;;;;;42.77;26.23;;;;;;;13.39;87.00;100049.63;5093555;28;20202;-66
2022/11/08 06:23:58;;;;;;;48.27;28.13;;;;;;;13.43;87.24;100050.88;5093443;28;20247;-66
2022/11/08 06:26:24;;;;;;;44.83;26.40;;;;;;;13.40;87.27;100053.91;5093020;28;20662;-65
2022/11/08 06:28:51;;;;;;;43.20;24.70;;;;;;;13.40;87.00;100051.25;5093554;28;20190;-65
2022/11/08 06:31:18;;;;;;;39.60;24.87;;;;;;;13.46;86.29;100055.81;5093079;28;20705;-65
2022/11/08 06:33:45;;;;;;;38.83;23.53;;;;;;;13.44;86.38;100051.69;5093173;28;20271;-67
2022/11/08 06:36:12;;;;;;;39.70;24.80;;;;;;;13.45;86.29;100056.84;5093255;28;20191;-66
2022/11/08 06:38:40;;;;;;;31.53;24.90;;;;;;;13.57;86.86;100055.22;5093239;28;20267;-66
2022/11/08 06:41:06;;;;;;;54.60;29.40;;;;;;;13.70;86.32;100052.59;5092943;28;20259;-65
2022/11/08 06:43:34;;;;;;;49.03;30.10;;;;;;;13.81;85.89;100059.97;5093344;28;20253;-66
2022/11/08 06:46:02;;;;;;;40.63;25.73;;;;;;;13.92;85.72;100062.06;5093214;28;20282;-66
2022/11/08 06:48:28;;;;;;;50.33;30.00;;;;;;;14.01;85.67;100054.69;5093206;28;20281;-66
2022/11/08 06:50:55;;;;;;;60.60;34.40;;;;;;;14.11;83.56;100060.44;5092717;28;20219;-65
2022/11/08 06:53:22;;;;;;;73.83;37.53;;;;;;;14.16;84.18;100061.47;5093178;28;20298;-65
2022/11/08 06:55:50;;;;;;;53.20;34.13;;;;;;;14.20;82.07;100069.88;5088334;28;20249;-69
2022/11/08 06:58:16;;;;;;;52.10;33.43;;;;;;;14.06;82.00;100074.44;5085776;28;20241;-68
2022/11/08 07:00:43;;;;;;;54.63;33.37;;;;;;;13.85;83.20;100077.25;5091347;28;20265;-66
2022/11/08 07:03:10;;;;;;;58.50;33.73;;;;;;;14.04;83.26;100076.47;5092573;28;20667;-65
2022/11/08 07:05:37;;;;;;;64.17;34.13;;;;;;;14.14;82.72;100073.41;5092530;28;20233;-66
2022/11/08 07:08:04;;;;;;;56.23;33.53;;;;;;;14.25;82.38;100078.97;5092597;28;20194;-66
2022/11/08 07:10:32;;;;;;;47.13;31.43;;;;;;;14.44;82.23;100069.31;5092644;28;20215;-66
2022/11/08 07:13:02;;;;;;;58.67;33.90;;;;;;;14.59;81.15;100065.38;5086477;28;20191;-66
2022/11/08 07:15:30;;;;;;;54.90;33.97;;;;;;;14.78;80.41;100067.22;5074129;28;20309;-66
2022/11/08 07:18:00;;;;;;;45.67;32.93;;;;;;;14.93;79.41;100070.47;5093200;28;20727;-66
2022/11/08 07:20:27;;;;;;;45.37;31.67;;;;;;;15.10;78.26;100074.34;5093053;28;20218;-66
2022/11/08 07:22:55;;;;;;;46.43;31.37;;;;;;;15.24;77.41;100075.13;5093190;28;20191;-66
2022/11/08 07:25:21;;;;;;;49.83;31.40;;;;;;;15.31;78.33;100079.41;5091208;28;20244;-66
2022/11/08 07:27:48;;;;;;;47.77;31.93;;;;;;;15.80;76.25;100087.63;5090649;28;20191;-67
2022/11/08 07:30:16;;;;;;;34.93;18.70;;;;;;;16.13;74.75;100092.75;5075282;28;20714;-69
2022/11/08 07:32:43;;;;;;;32.27;20.90;;;;;;;16.95;80.79;100076.41;5070071;28;20253;-70
2022/11/08 07:35:10;;;;;;;37.37;26.50;;;;;;;17.74;70.69;100103.97;5069342;28;20196;-70
2022/11/08 07:37:36;;;;;;;28.77;17.97;;;;;;;18.15;67.87;100101.31;5069883;28;20203;-71
2022/11/08 07:40:03;;;;;;;29.23;19.93;;;;;;;18.49;68.72;100087.13;5070935;28;20280;-69
2022/11/08 07:42:30;;;;;;;24.17;18.40;;;;;;;19.04;66.36;100088.44;5072087;28;20194;-67
2022/11/08 07:44:57;;;;;;;38.90;25.70;;;;;;;19.38;61.82;100103.75;5072322;28;20245;-68
2022/11/08 07:47:25;;;;;;;39.73;24.10;;;;;;;19.57;61.99;100105.22;5071741;28;20663;-68
2022/11/08 07:49:51;;;;;;;32.97;20.30;;;;;;;19.57;62.87;100091.75;5072034;28;20254;-68
2022/11/08 07:52:18;;;;;;;37.83;25.87;;;;;;;19.71;61.61;100093.09;5072029;28;20254;-67
2022/11/08 07:54:45;;;;;;;28.10;21.63;;;;;;;19.89;63.94;100091.03;5072034;28;20233;-64
2022/11/08 07:57:12;;;;;;;34.47;18.07;;;;;;;20.04;65.84;100091.31;5072252;28;20643;-67
2022/11/08 07:59:38;;;;;;;34.97;22.47;;;;;;;20.11;59.05;100099.28;5071924;28;20192;-65
2022/11/08 08:02:05;;;;;;;35.83;21.50;;;;;;;19.93;62.86;100083.28;5072108;28;20250;-69
2022/11/08 08:04:33;;;;;;;34.93;24.40;;;;;;;19.88;61.50;100086.69;5071836;28;20255;-63
2022/11/08 08:07:00;;;;;;;32.40;20.17;;;;;;;20.04;61.35;100085.09;5082591;28;20203;-63
2022/11/08 08:09:27;;;;;;;37.63;23.97;;;;;;;20.05;59.49;100092.94;5092224;28;20196;-64
2022/11/08 08:11:54;;;;;;;32.77;22.13;;;;;;;19.90;58.80;100098.03;5091914;28;20280;-63
2022/11/08 08:14:20;;;;;;;33.00;21.97;;;;;;;19.90;60.07;100084.56;5074304;28;20192;-65
2022/11/08 08:16:47;;;;;;;28.27;18.43;;;;;;;20.08;59.95;100089.75;5074179;28;20372;-63
2022/11/08 08:19:14;;;;;;;35.33;23.20;;;;;;;20.28;58.79;100084.75;5072156;28;20218;-63
2022/11/08 08:21:42;;;;;;;39.20;24.37;;;;;;;20.55;57.87;100096.50;5071559;28;20196;-64
2022/11/08 08:24:09;;;;;;;29.43;18.90;;;;;;;20.77;58.93;100082.25;5071141;28;20737;-64
2022/11/08 08:26:37;;;;;;;31.17;21.47;;;;;;;20.95;57.33;100093.63;5072104;28;20273;-64
2022/11/08 08:29:03;;;;;;;29.87;21.73;;;;;;;20.94;56.44;100097.41;5075957;28;20655;-64
2022/11/08 08:31:30;;;;;;;27.77;20.20;;;;;;;21.00;56.23;100095.59;5091727;28;20223;-64
2022/11/08 08:33:57;;;;;;;32.67;20.47;;;;;;;21.16;58.17;100087.47;5092580;28;20191;-65
2022/11/08 08:36:24;;;;;;;30.17;23.33;;;;;;;21.28;53.83;100087.34;5091699;28;20199;-65
2022/11/08 08:38:52;;;;;;;38.37;23.97;;;;;;;21.36;55.01;100082.31;5091447;28;20249;-64
2022/11/08 08:41:18;;;;;;;31.43;22.90;;;;;;;21.41;54.83;100078.84;5091484;28;20207;-66
2022/11/08 08:43:45;;;;;;;41.63;25.97;;;;;;;21.35;53.99;100086.09;5091368;28;20195;-68
2022/11/08 08:46:12;;;;;;;37.93;24.77;;;;;;;21.05;53.54;100091.09;5094723;28;20224;-67
2022/11/08 08:48:38;;;;;;;37.13;24.17;;;;;;;20.65;55.34;100085.06;5088894;28;20196;-65
2022/11/08 08:51:05;;;;;;;35.00;23.60;;;;;;;20.64;56.60;100088.84;5074000;28;20224;-67
2022/11/08 08:53:32;;;;;;;26.97;18.90;;;;;;;20.96;58.15;100076.38;5074767;28;20195;-68
2022/11/08 08:56:02;;;;;;;24.33;18.17;;;;;;;21.46;58.52;100076.22;5075338;28;20192;-67
2022/11/08 08:58:28;;;;;;;39.33;23.47;;;;;;;21.81;53.08;100084.78;5075085;28;20275;-66
2022/11/08 09:01:00;;;;;;;32.33;22.43;;;;;;;21.88;52.81;100079.97;5074991;28;20261;-67
2022/11/08 09:03:27;;;;;;;24.27;20.03;;;;;;;22.04;54.40;100074.44;5075287;28;20195;-67
2022/11/08 09:05:56;;;;;;;36.70;23.20;;;;;;;22.39;52.11;100082.91;5075876;28;20196;-66
2022/11/08 09:08:23;;;;;;;27.30;22.30;;;;;;;22.62;50.70;100090.69;5090039;28;20667;-64
2022/11/08 09:10:53;;;;;;;26.57;18.10;;;;;;;22.77;50.76;100085.38;5074519;28;20649;-66
2022/11/08 09:13:22;;;;;;;27.20;22.23;;;;;;;22.89;49.08;100088.72;5082369;28;20194;-67
2022/11/08 09:15:49;;;;;;;27.23;17.50;;;;;;;23.02;50.04;100082.84;5080020;28;20183;-68
2022/11/08 09:18:16;;;;;;;31.97;21.43;;;;;;;23.31;50.26;100083.25;5095130;28;20231;-68
2022/11/08 09:20:43;;;;;;;31.60;21.93;;;;;;;23.17;47.48;100085.63;5091188;28;20199;-69
2022/11/08 09:23:11;;;;;;;24.77;18.50;;;;;;;23.02;49.94;100082.00;5095047;28;20282;-68
2022/11/08 09:25:38;;;;;;;27.57;19.63;;;;;;;22.97;50.09;100088.22;5094639;28;20198;-68
2022/11/08 09:28:05;;;;;;;30.43;21.63;;;;;;;22.91;48.98;100078.41;5094413;28;20199;-68
2022/11/08 09:30:33;;;;;;;34.80;22.43;;;;;;;22.97;48.54;100080.09;5077770;28;20764;-67
2022/11/08 09:33:00;;;;;;;29.77;19.73;;;;;;;23.16;48.31;100072.34;5074121;28;20257;-67
2022/11/08 09:35:26;;;;;;;28.00;20.07;;;;;;;23.39;47.76;100080.06;5072395;28;20200;-66
2022/11/08 09:37:54;;;;;;;30.33;20.77;;;;;;;23.31;47.58;100075.13;5074319;28;20664;-66
2022/11/08 09:40:23;;;;;;;28.77;20.00;;;;;;;23.11;46.99;100075.81;5087659;28;20204;-66
2022/11/08 09:43:00;;;;;;;31.20;19.77;;;;;;;22.55;48.71;100070.31;5094059;28;20191;-67
2022/11/08 09:45:31;;;;;;;24.00;19.60;;;;;;;22.48;49.46;100072.44;5094252;28;20240;-67
2022/11/08 09:48:02;;;;;;;30.03;18.33;;;;;;;22.55;49.04;100059.50;5094241;28;20617;-67
2022/11/08 09:50:36;;;;;;;25.87;18.63;;;;;;;22.41;49.34;100066.41;5088609;28;20628;-67
2022/11/08 09:53:14;;;;;;;27.83;19.63;;;;;;;22.12;49.99;100055.03;5073680;28;20179;-73
2022/11/08 09:55:46;;;;;;;24.10;15.67;;;;;;;22.17;52.99;100063.22;5080099;28;20183;-73
2022/11/08 09:58:21;;;;;;;17.87;15.33;;;;;;;22.36;51.37;100045.50;5094364;28;20199;-70
2022/11/08 10:00:49;;;;;;;27.50;17.10;;;;;;;22.65;51.10;100063.09;5094835;28;20183;-74
2022/11/08 10:03:19;;;;;;;20.50;15.87;;;;;;;22.78;49.58;100057.22;5093774;28;20559;-75
2022/11/08 10:05:55;;;;;;;21.10;14.77;;;;;;;22.72;48.96;100058.28;5093481;28;20268;-75
2022/11/08 10:08:30;;;;;;;28.53;17.33;;;;;;;22.87;49.22;100055.63;5093896;28;20184;-74
2022/11/08 10:11:19;;;;;;;24.87;16.60;;;;;;;22.85;48.30;100060.50;5093660;28;20272;-74
2022/11/08 10:13:59;;;;;;;34.07;18.73;;;;;;;22.78;48.83;100051.78;5081422;28;20184;-73
2022/11/08 10:16:36;;;;;;;34.40;17.50;;;;;;;22.63;50.25;100050.88;5083625;28;20680;-72
2022/11/08 10:19:33;;;;;;;20.87;16.83;;;;;;;22.75;49.18;100049.59;5093827;28;20240;-70
2022/11/08 10:22:05;;;;;;;21.50;16.93;;;;;;;22.82;49.14;100044.78;5093546;28;20195;-67
2022/11/08 10:24:35;;;;;;;23.33;16.90;;;;;;;22.84;49.07;100039.09;5080002;28;20196;-67
2022/11/08 10:27:03;;;;;;;23.20;17.67;;;;;;;22.95;49.24;100047.00;5080370;28;20282;-67
2022/11/08 10:29:36;;;;;;;27.33;19.30;;;;;;;22.86;47.80;100045.06;5085147;28;20199;-66
2022/11/08 10:32:11;;;;;;;70.43;20.87;;;;;;;22.75;48.87;100043.38;5073541;28;20204;-68
2022/11/08 10:34:45;;;;;;;22.73;17.83;;;;;;;22.39;49.68;100045.00;5073095;28;20615;-69
2022/11/08 10:37:14;;;;;;;21.87;16.17;;;;;;;22.33;51.09;100034.41;5072791;28;20184;-67
2022/11/08 10:39:54;;;;;;;26.20;16.33;;;;;;;22.59;51.13;100034.34;5070520;28;20624;-68
2022/11/08 10:42:31;;;;;;;20.53;15.80;;;;;;;22.81;50.22;100032.31;5072866;28;20715;-67
2022/11/08 10:44:58;;;;;;;31.17;19.47;;;;;;;22.70;48.65;100029.81;5073200;28;20249;-67
2022/11/08 10:47:27;;;;;;;29.60;19.33;;;;;;;22.77;49.49;100030.38;5073798;28;20195;-67
2022/11/08 10:49:55;;;;;;;28.17;19.70;;;;;;;22.51;48.16;100024.00;5072932;28;20671;-67
2022/11/08 10:52:30;;;;;;;25.23;18.87;;;;;;;22.27;49.21;100022.72;5072558;28;20657;-67
2022/11/08 10:54:58;;;;;;;29.67;20.70;;;;;;;21.99;49.70;100009.47;5073012;28;20190;-67
2022/11/08 10:57:36;;;;;;;23.80;17.50;;;;;;;21.97;51.97;100003.50;5072940;28;20351;-68
2022/11/08 11:00:17;;;;;;;29.57;20.27;;;;;;;21.88;51.07;100009.66;5073040;28;20222;-67
2022/11/08 11:02:46;;;;;;;26.10;18.03;;;;;;;21.86;51.19;100000.97;5072498;28;20249;-67
2022/11/08 11:05:26;;;;;;;25.30;18.27;;;;;;;21.79;52.06;100001.19;5072283;28;20192;-68
2022/11/08 11:08:13;;;;;;;28.27;19.90;;;;;;;21.73;52.00;99990.56;5073495;28;20198;-68
2022/11/08 11:10:41;;;;;;;25.70;19.00;;;;;;;21.78;51.85;99988.72;5072544;28;20215;-68
2022/11/08 11:13:11;;;;;;;31.57;20.00;;;;;;;21.86;51.14;99990.97;5079969;28;20192;-67
2022/11/08 11:15:44;;;;;;;25.50;19.30;;;;;;;21.56;51.88;99995.25;5089221;28;20655;-68
2022/11/08 11:18:21;;;;;;;27.03;20.17;;;;;;;21.52;52.13;99981.38;5073073;28;20270;-68
2022/11/08 11:21:15;;;;;;;22.13;16.47;;;;;;;21.56;52.38;99968.19;5073295;28;20221;-68
2022/11/08 11:23:44;;;;;;;33.00;19.13;;;;;;;21.79;51.97;99984.94;5053357;28;20188;-67
2022/11/08 11:26:27;;;;;;;29.17;20.63;;;;;;;21.80;51.19;99975.75;5072145;28;20246;-71
2022/11/08 11:29:17;;;;;;;25.57;20.03;;;;;;;21.80;51.31;99975.75;5071995;28;20727;-70
2022/11/08 11:31:45;;;;;;;26.67;19.87;;;;;;;21.77;51.27;99981.69;5073401;28;20211;-69
2022/11/08 11:34:39;;;;;;;28.53;20.90;;;;;;;21.54;51.26;99960.34;5071988;28;20196;-71
2022/11/08 11:37:18;;;;;;;28.17;19.73;;;;;;;21.54;51.77;99976.56;5073059;28;20188;-69
2022/11/08 11:39:54;;;;;;;27.50;20.37;;;;;;;21.38;52.32;99972.06;5071763;28;20283;-70
2022/11/08 11:42:27;;;;;;;31.00;20.07;;;;;;;21.29;52.78;99973.59;5072259;28;20192;-70
2022/11/08 11:45:05;;;;;;;26.67;18.57;;;;;;;21.35;52.64;99966.34;5072390;28;20271;-70